sensor_id;sensor_type;location;lat;lon;timestamp;temperature;humidity
62998;DHT22;55949;52.590;7.330;2023-11-19T00:00:35;12.70;99.90
62998;DHT22;55949;52.590;7.330;2023-11-19T00:01:36;12.50;99.90
62998;DHT22;55949;52.590;7.330;2023-11-19T00:02:38;12.60;99.90
62998;DHT22;55949;52.590;7.330;2023-11-19T00:03:38;12.70;99.90
62998;DHT22;55949;52.590;7.330;2023-11-19T00:04:39;12.60;99.90
62998;DHT22;55949;52.590;7.330;2023-11-19T00:05:40;12.60;99.90
62998;DHT22;55949;52.590;7.330;2023-11-19T00:06:42;12.60;99.90
62998;DHT22;55949;52.590;7.330;2023-11-19T00:07:43;12.60;99.90
62998;DHT22;55949;52.590;7.330;2023-11-19T00:08:43;12.70;99.90
62998;DHT22;55949;52.590;7.330;2023-11-19T00:09:44;12.40;99.90
62998;DHT22;55949;52.590;7.330;2023-11-19T00:10:45;12.40;99.90
62998;DHT22;55949;52.590;7.330;2023-11-19T00:11:46;12.40;99.90
62998;DHT22;55949;52.590;7.330;2023-11-19T00:12:48;12.40;99.90
62998;DHT22;55949;52.590;7.330;2023-11-19T00:13:49;12.60;99.90
62998;DHT22;55949;52.590;7.330;2023-11-19T00:14:50;12.70;99.90
62998;DHT22;55949;52.590;7.330;2023-11-19T00:15:51;12.50;99.90
62998;DHT22;55949;52.590;7.330;2023-11-19T00:16:51;12.60;99.90
62998;DHT22;55949;52.590;7.330;2023-11-19T00:17:54;12.60;99.90
62998;DHT22;55949;52.590;7.330;2023-11-19T00:18:55;12.60;99.90
62998;DHT22;55949;52.590;7.330;2023-11-19T00:19:55;12.70;99.90
62998;DHT22;55949;52.590;7.330;2023-11-19T00:20:56;12.80;99.90
62998;DHT22;55949;52.590;7.330;2023-11-19T00:21:57;12.90;99.90
62998;DHT22;55949;52.590;7.330;2023-11-19T00:22:57;13.10;99.90
62998;DHT22;55949;52.590;7.330;2023-11-19T00:23:58;12.80;99.90
62998;DHT22;55949;52.590;7.330;2023-11-19T00:24:59;12.70;99.90
62998;DHT22;55949;52.590;7.330;2023-11-19T00:25:59;12.90;99.90
62998;DHT22;55949;52.590;7.330;2023-11-19T00:27:00;12.90;99.90
62998;DHT22;55949;52.590;7.330;2023-11-19T00:28:01;12.70;99.90
62998;DHT22;55949;52.590;7.330;2023-11-19T00:29:01;12.70;99.90
62998;DHT22;55949;52.590;7.330;2023-11-19T00:30:04;12.80;99.90
62998;DHT22;55949;52.590;7.330;2023-11-19T00:31:05;12.90;99.90
62998;DHT22;55949;52.590;7.330;2023-11-19T00:32:06;12.80;99.90
62998;DHT22;55949;52.590;7.330;2023-11-19T00:33:08;12.70;99.90
62998;DHT22;55949;52.590;7.330;2023-11-19T00:34:08;12.90;99.90
62998;DHT22;55949;52.590;7.330;2023-11-19T00:35:09;13.10;99.90
62998;DHT22;55949;52.590;7.330;2023-11-19T00:36:16;13.00;99.90
62998;DHT22;55949;52.590;7.330;2023-11-19T00:37:16;13.00;99.90
62998;DHT22;55949;52.590;7.330;2023-11-19T00:38:17;12.60;99.90
62998;DHT22;55949;52.590;7.330;2023-11-19T00:39:18;12.80;99.90
62998;DHT22;55949;52.590;7.330;2023-11-19T00:40:21;13.00;99.90
62998;DHT22;55949;52.590;7.330;2023-11-19T00:41:23;13.10;99.90
62998;DHT22;55949;52.590;7.330;2023-11-19T00:42:24;13.10;99.90
62998;DHT22;55949;52.590;7.330;2023-11-19T00:43:25;13.00;99.90
62998;DHT22;55949;52.590;7.330;2023-11-19T00:44:26;13.10;99.90
62998;DHT22;55949;52.590;7.330;2023-11-19T00:45:27;13.00;99.90
62998;DHT22;55949;52.590;7.330;2023-11-19T00:46:28;13.00;99.90
62998;DHT22;55949;52.590;7.330;2023-11-19T00:47:29;13.00;99.90
62998;DHT22;55949;52.590;7.330;2023-11-19T00:48:31;13.00;99.90
62998;DHT22;55949;52.590;7.330;2023-11-19T00:49:32;13.10;99.90
62998;DHT22;55949;52.590;7.330;2023-11-19T00:50:33;13.00;99.90
62998;DHT22;55949;52.590;7.330;2023-11-19T00:51:34;13.10;99.90
62998;DHT22;55949;52.590;7.330;2023-11-19T00:52:34;13.00;99.90
62998;DHT22;55949;52.590;7.330;2023-11-19T00:53:36;13.00;99.90
62998;DHT22;55949;52.590;7.330;2023-11-19T00:54:36;13.20;99.90
62998;DHT22;55949;52.590;7.330;2023-11-19T00:55:37;13.10;99.90
62998;DHT22;55949;52.590;7.330;2023-11-19T00:56:38;13.20;99.90
62998;DHT22;55949;52.590;7.330;2023-11-19T00:57:38;12.90;99.90
62998;DHT22;55949;52.590;7.330;2023-11-19T00:58:39;12.90;99.90
62998;DHT22;55949;52.590;7.330;2023-11-19T00:59:42;12.90;99.90
62998;DHT22;55949;52.590;7.330;2023-11-19T01:00:43;12.90;99.90
62998;DHT22;55949;52.590;7.330;2023-11-19T01:01:44;12.80;99.90
62998;DHT22;55949;52.590;7.330;2023-11-19T01:02:47;13.00;99.90
62998;DHT22;55949;52.590;7.330;2023-11-19T01:03:50;13.00;99.90
62998;DHT22;55949;52.590;7.330;2023-11-19T01:04:51;13.10;99.90
62998;DHT22;55949;52.590;7.330;2023-11-19T01:05:52;13.30;99.90
62998;DHT22;55949;52.590;7.330;2023-11-19T01:06:54;13.20;99.90
62998;DHT22;55949;52.590;7.330;2023-11-19T01:07:54;13.30;99.90
62998;DHT22;55949;52.590;7.330;2023-11-19T01:08:56;13.30;99.90
62998;DHT22;55949;52.590;7.330;2023-11-19T01:10:01;13.50;99.90
62998;DHT22;55949;52.590;7.330;2023-11-19T01:11:03;13.50;99.90
62998;DHT22;55949;52.590;7.330;2023-11-19T01:12:05;13.50;99.90
62998;DHT22;55949;52.590;7.330;2023-11-19T01:13:06;13.60;99.90
62998;DHT22;55949;52.590;7.330;2023-11-19T01:14:06;13.60;99.90
62998;DHT22;55949;52.590;7.330;2023-11-19T01:15:07;13.80;99.90
62998;DHT22;55949;52.590;7.330;2023-11-19T01:16:08;13.90;99.90
62998;DHT22;55949;52.590;7.330;2023-11-19T01:17:10;14.10;99.90
62998;DHT22;55949;52.590;7.330;2023-11-19T01:18:10;14.10;99.90
62998;DHT22;55949;52.590;7.330;2023-11-19T01:19:11;14.20;99.90
62998;DHT22;55949;52.590;7.330;2023-11-19T01:20:12;14.10;99.90
62998;DHT22;55949;52.590;7.330;2023-11-19T01:21:14;14.00;99.90
62998;DHT22;55949;52.590;7.330;2023-11-19T01:22:17;14.00;99.90
62998;DHT22;55949;52.590;7.330;2023-11-19T01:23:19;14.20;99.90
62998;DHT22;55949;52.590;7.330;2023-11-19T01:24:20;14.20;99.90
62998;DHT22;55949;52.590;7.330;2023-11-19T01:25:21;14.30;99.90
62998;DHT22;55949;52.590;7.330;2023-11-19T01:26:21;14.30;99.90
62998;DHT22;55949;52.590;7.330;2023-11-19T01:27:22;14.20;99.90
62998;DHT22;55949;52.590;7.330;2023-11-19T01:28:23;14.00;99.90
62998;DHT22;55949;52.590;7.330;2023-11-19T01:29:23;13.90;99.90
62998;DHT22;55949;52.590;7.330;2023-11-19T01:30:24;13.90;99.90
62998;DHT22;55949;52.590;7.330;2023-11-19T01:31:25;13.90;99.90
62998;DHT22;55949;52.590;7.330;2023-11-19T01:32:26;13.80;99.90
62998;DHT22;55949;52.590;7.330;2023-11-19T01:33:26;13.90;99.90
62998;DHT22;55949;52.590;7.330;2023-11-19T01:34:28;14.00;99.90
62998;DHT22;55949;52.590;7.330;2023-11-19T01:35:29;14.10;99.90
62998;DHT22;55949;52.590;7.330;2023-11-19T01:36:29;14.10;99.90
62998;DHT22;55949;52.590;7.330;2023-11-19T01:37:30;14.00;99.90
62998;DHT22;55949;52.590;7.330;2023-11-19T01:38:32;14.10;99.90
62998;DHT22;55949;52.590;7.330;2023-11-19T01:39:33;14.20;99.90
62998;DHT22;55949;52.590;7.330;2023-11-19T01:40:33;14.10;99.90
62998;DHT22;55949;52.590;7.330;2023-11-19T01:41:37;14.10;99.90
62998;DHT22;55949;52.590;7.330;2023-11-19T01:42:40;14.10;99.90
62998;DHT22;55949;52.590;7.330;2023-11-19T01:43:41;14.10;99.90
62998;DHT22;55949;52.590;7.330;2023-11-19T01:44:42;14.00;99.90
62998;DHT22;55949;52.590;7.330;2023-11-19T01:45:42;13.90;99.90
62998;DHT22;55949;52.590;7.330;2023-11-19T01:46:44;14.00;99.90
62998;DHT22;55949;52.590;7.330;2023-11-19T01:47:47;13.90;99.90
62998;DHT22;55949;52.590;7.330;2023-11-19T01:48:48;13.80;99.90
62998;DHT22;55949;52.590;7.330;2023-11-19T01:49:49;13.70;99.90
62998;DHT22;55949;52.590;7.330;2023-11-19T01:50:51;13.80;99.90
62998;DHT22;55949;52.590;7.330;2023-11-19T01:51:52;13.60;99.90
62998;DHT22;55949;52.590;7.330;2023-11-19T01:52:54;13.70;99.90
62998;DHT22;55949;52.590;7.330;2023-11-19T01:53:55;13.70;99.90
62998;DHT22;55949;52.590;7.330;2023-11-19T01:54:57;13.90;99.90
62998;DHT22;55949;52.590;7.330;2023-11-19T01:55:58;14.10;99.90
62998;DHT22;55949;52.590;7.330;2023-11-19T01:56:59;14.20;99.90
62998;DHT22;55949;52.590;7.330;2023-11-19T01:58:01;14.10;99.90
62998;DHT22;55949;52.590;7.330;2023-11-19T01:59:03;14.00;99.90
62998;DHT22;55949;52.590;7.330;2023-11-19T02:00:05;13.90;99.90
62998;DHT22;55949;52.590;7.330;2023-11-19T02:01:06;13.90;99.90
62998;DHT22;55949;52.590;7.330;2023-11-19T02:02:07;13.90;99.90
62998;DHT22;55949;52.590;7.330;2023-11-19T02:03:08;14.00;99.90
62998;DHT22;55949;52.590;7.330;2023-11-19T02:04:09;14.20;99.90
62998;DHT22;55949;52.590;7.330;2023-11-19T02:05:12;14.10;99.90
62998;DHT22;55949;52.590;7.330;2023-11-19T02:06:14;14.10;99.90
62998;DHT22;55949;52.590;7.330;2023-11-19T02:07:15;13.80;99.90
62998;DHT22;55949;52.590;7.330;2023-11-19T02:08:17;13.90;99.90
62998;DHT22;55949;52.590;7.330;2023-11-19T02:09:18;13.80;99.90
62998;DHT22;55949;52.590;7.330;2023-11-19T02:10:19;13.90;99.90
62998;DHT22;55949;52.590;7.330;2023-11-19T02:11:20;13.90;99.90
62998;DHT22;55949;52.590;7.330;2023-11-19T02:12:21;13.90;99.90
62998;DHT22;55949;52.590;7.330;2023-11-19T02:13:22;13.90;99.90
62998;DHT22;55949;52.590;7.330;2023-11-19T02:14:25;13.90;99.90
62998;DHT22;55949;52.590;7.330;2023-11-19T02:15:26;14.00;99.90
62998;DHT22;55949;52.590;7.330;2023-11-19T02:16:26;13.90;99.90
62998;DHT22;55949;52.590;7.330;2023-11-19T02:17:31;13.90;99.90
62998;DHT22;55949;52.590;7.330;2023-11-19T02:18:32;14.00;99.90
62998;DHT22;55949;52.590;7.330;2023-11-19T02:19:33;14.20;99.90
62998;DHT22;55949;52.590;7.330;2023-11-19T02:20:34;14.10;99.90
62998;DHT22;55949;52.590;7.330;2023-11-19T02:21:34;14.10;99.90
62998;DHT22;55949;52.590;7.330;2023-11-19T02:22:35;14.10;99.90
62998;DHT22;55949;52.590;7.330;2023-11-19T02:23:36;14.10;99.90
62998;DHT22;55949;52.590;7.330;2023-11-19T02:24:37;14.10;99.90
62998;DHT22;55949;52.590;7.330;2023-11-19T02:25:38;14.10;99.90
62998;DHT22;55949;52.590;7.330;2023-11-19T02:26:47;14.20;99.90
62998;DHT22;55949;52.590;7.330;2023-11-19T02:27:54;14.20;99.90
62998;DHT22;55949;52.590;7.330;2023-11-19T02:28:56;14.10;99.90
62998;DHT22;55949;52.590;7.330;2023-11-19T02:29:57;14.00;99.90
62998;DHT22;55949;52.590;7.330;2023-11-19T02:30:58;14.10;99.90
62998;DHT22;55949;52.590;7.330;2023-11-19T02:31:59;14.20;99.90
62998;DHT22;55949;52.590;7.330;2023-11-19T02:32:59;14.30;99.90
62998;DHT22;55949;52.590;7.330;2023-11-19T02:34:05;14.30;99.90
62998;DHT22;55949;52.590;7.330;2023-11-19T02:35:06;14.30;99.90
62998;DHT22;55949;52.590;7.330;2023-11-19T02:36:08;14.30;99.90
62998;DHT22;55949;52.590;7.330;2023-11-19T02:37:09;14.40;99.90
62998;DHT22;55949;52.590;7.330;2023-11-19T02:38:10;14.50;99.90
62998;DHT22;55949;52.590;7.330;2023-11-19T02:39:11;14.60;99.90
62998;DHT22;55949;52.590;7.330;2023-11-19T02:40:13;14.60;99.90
62998;DHT22;55949;52.590;7.330;2023-11-19T02:41:14;14.60;99.90
62998;DHT22;55949;52.590;7.330;2023-11-19T02:42:15;14.60;99.90
62998;DHT22;55949;52.590;7.330;2023-11-19T02:43:15;14.60;99.90
62998;DHT22;55949;52.590;7.330;2023-11-19T02:44:16;14.80;99.90
62998;DHT22;55949;52.590;7.330;2023-11-19T02:45:17;14.60;99.90
62998;DHT22;55949;52.590;7.330;2023-11-19T02:46:18;14.50;99.90
62998;DHT22;55949;52.590;7.330;2023-11-19T02:47:19;14.40;99.90
62998;DHT22;55949;52.590;7.330;2023-11-19T02:48:21;14.40;99.90
62998;DHT22;55949;52.590;7.330;2023-11-19T02:49:22;14.20;99.90
62998;DHT22;55949;52.590;7.330;2023-11-19T02:50:25;14.20;99.90
62998;DHT22;55949;52.590;7.330;2023-11-19T02:51:26;14.30;99.90
62998;DHT22;55949;52.590;7.330;2023-11-19T02:52:28;14.20;99.90
62998;DHT22;55949;52.590;7.330;2023-11-19T02:53:32;14.20;99.90
62998;DHT22;55949;52.590;7.330;2023-11-19T02:54:32;14.10;99.90
62998;DHT22;55949;52.590;7.330;2023-11-19T02:55:35;14.00;99.90
62998;DHT22;55949;52.590;7.330;2023-11-19T02:56:42;14.00;99.90
62998;DHT22;55949;52.590;7.330;2023-11-19T02:57:43;14.10;99.90
62998;DHT22;55949;52.590;7.330;2023-11-19T02:58:48;14.20;99.90
62998;DHT22;55949;52.590;7.330;2023-11-19T02:59:49;14.20;99.90
62998;DHT22;55949;52.590;7.330;2023-11-19T03:00:50;14.30;99.90
62998;DHT22;55949;52.590;7.330;2023-11-19T03:02:10;14.40;99.90
62998;DHT22;55949;52.590;7.330;2023-11-19T03:03:16;14.40;99.90
62998;DHT22;55949;52.590;7.330;2023-11-19T03:04:26;14.40;99.90
62998;DHT22;55949;52.590;7.330;2023-11-19T03:05:27;14.40;99.90
62998;DHT22;55949;52.590;7.330;2023-11-19T03:06:30;14.50;99.90
62998;DHT22;55949;52.590;7.330;2023-11-19T03:07:32;14.40;99.90
62998;DHT22;55949;52.590;7.330;2023-11-19T03:08:34;14.50;99.90
62998;DHT22;55949;52.590;7.330;2023-11-19T03:09:35;14.50;99.90
62998;DHT22;55949;52.590;7.330;2023-11-19T03:10:36;14.40;99.90
62998;DHT22;55949;52.590;7.330;2023-11-19T03:11:37;14.60;99.90
62998;DHT22;55949;52.590;7.330;2023-11-19T03:12:38;14.60;99.90
62998;DHT22;55949;52.590;7.330;2023-11-19T03:13:39;14.70;99.90
62998;DHT22;55949;52.590;7.330;2023-11-19T03:14:39;14.80;99.90
62998;DHT22;55949;52.590;7.330;2023-11-19T03:15:41;14.80;99.90
62998;DHT22;55949;52.590;7.330;2023-11-19T03:16:45;14.70;99.90
62998;DHT22;55949;52.590;7.330;2023-11-19T03:17:46;14.40;99.90
62998;DHT22;55949;52.590;7.330;2023-11-19T03:18:47;14.50;99.90
62998;DHT22;55949;52.590;7.330;2023-11-19T03:19:48;14.60;99.90
62998;DHT22;55949;52.590;7.330;2023-11-19T03:20:49;14.80;99.90
62998;DHT22;55949;52.590;7.330;2023-11-19T03:21:50;14.80;99.90
62998;DHT22;55949;52.590;7.330;2023-11-19T03:22:51;14.80;99.90
62998;DHT22;55949;52.590;7.330;2023-11-19T03:23:52;14.80;99.90
62998;DHT22;55949;52.590;7.330;2023-11-19T03:24:52;14.80;99.90
62998;DHT22;55949;52.590;7.330;2023-11-19T03:25:53;14.80;99.90
62998;DHT22;55949;52.590;7.330;2023-11-19T03:26:54;14.50;99.90
62998;DHT22;55949;52.590;7.330;2023-11-19T03:27:54;14.70;99.90
62998;DHT22;55949;52.590;7.330;2023-11-19T03:28:55;14.70;99.90
62998;DHT22;55949;52.590;7.330;2023-11-19T03:29:57;14.60;99.90
62998;DHT22;55949;52.590;7.330;2023-11-19T03:30:58;14.60;99.90
62998;DHT22;55949;52.590;7.330;2023-11-19T03:31:59;14.50;99.90
62998;DHT22;55949;52.590;7.330;2023-11-19T03:32:59;14.60;99.90
62998;DHT22;55949;52.590;7.330;2023-11-19T03:34:01;14.40;99.90
62998;DHT22;55949;52.590;7.330;2023-11-19T03:35:03;14.60;99.90
62998;DHT22;55949;52.590;7.330;2023-11-19T03:36:05;14.70;99.90
62998;DHT22;55949;52.590;7.330;2023-11-19T03:37:06;14.70;99.90
62998;DHT22;55949;52.590;7.330;2023-11-19T03:38:07;14.70;99.90
62998;DHT22;55949;52.590;7.330;2023-11-19T03:39:08;14.60;99.90
62998;DHT22;55949;52.590;7.330;2023-11-19T03:40:09;14.70;99.90
62998;DHT22;55949;52.590;7.330;2023-11-19T03:41:13;14.70;99.90
62998;DHT22;55949;52.590;7.330;2023-11-19T03:42:14;14.50;99.90
62998;DHT22;55949;52.590;7.330;2023-11-19T03:43:14;14.40;99.90
62998;DHT22;55949;52.590;7.330;2023-11-19T03:44:16;14.50;99.90
62998;DHT22;55949;52.590;7.330;2023-11-19T03:45:17;14.60;99.90
62998;DHT22;55949;52.590;7.330;2023-11-19T03:46:20;14.60;99.90
62998;DHT22;55949;52.590;7.330;2023-11-19T03:47:21;14.80;99.90
62998;DHT22;55949;52.590;7.330;2023-11-19T03:48:22;14.70;99.90
62998;DHT22;55949;52.590;7.330;2023-11-19T03:49:23;14.60;99.90
62998;DHT22;55949;52.590;7.330;2023-11-19T03:50:24;14.50;99.90
62998;DHT22;55949;52.590;7.330;2023-11-19T03:51:25;14.60;99.90
62998;DHT22;55949;52.590;7.330;2023-11-19T03:52:25;14.70;99.90
62998;DHT22;55949;52.590;7.330;2023-11-19T03:53:27;14.60;99.90
62998;DHT22;55949;52.590;7.330;2023-11-19T03:54:28;14.50;99.90
62998;DHT22;55949;52.590;7.330;2023-11-19T03:55:28;14.40;99.90
62998;DHT22;55949;52.590;7.330;2023-11-19T03:56:29;14.50;99.90
62998;DHT22;55949;52.590;7.330;2023-11-19T03:57:31;14.50;99.90
62998;DHT22;55949;52.590;7.330;2023-11-19T03:58:32;14.30;99.90
62998;DHT22;55949;52.590;7.330;2023-11-19T03:59:33;14.10;99.90
62998;DHT22;55949;52.590;7.330;2023-11-19T04:00:34;13.90;99.90
62998;DHT22;55949;52.590;7.330;2023-11-19T04:01:35;13.90;99.90
62998;DHT22;55949;52.590;7.330;2023-11-19T04:02:37;13.70;99.90
62998;DHT22;55949;52.590;7.330;2023-11-19T04:03:38;13.70;99.90
62998;DHT22;55949;52.590;7.330;2023-11-19T04:04:38;13.80;99.90
62998;DHT22;55949;52.590;7.330;2023-11-19T04:05:39;13.70;99.90
62998;DHT22;55949;52.590;7.330;2023-11-19T04:06:40;13.60;99.90
62998;DHT22;55949;52.590;7.330;2023-11-19T04:07:40;13.50;99.90
62998;DHT22;55949;52.590;7.330;2023-11-19T04:08:41;13.50;99.90
62998;DHT22;55949;52.590;7.330;2023-11-19T04:09:42;13.50;99.90
62998;DHT22;55949;52.590;7.330;2023-11-19T04:10:42;13.50;99.90
62998;DHT22;55949;52.590;7.330;2023-11-19T04:11:43;13.50;99.90
62998;DHT22;55949;52.590;7.330;2023-11-19T04:12:44;13.60;99.90
62998;DHT22;55949;52.590;7.330;2023-11-19T04:13:45;13.60;99.90
62998;DHT22;55949;52.590;7.330;2023-11-19T04:14:45;13.70;99.90
62998;DHT22;55949;52.590;7.330;2023-11-19T04:15:46;13.80;99.90
62998;DHT22;55949;52.590;7.330;2023-11-19T04:16:47;13.90;99.90
62998;DHT22;55949;52.590;7.330;2023-11-19T04:17:47;14.00;99.90
62998;DHT22;55949;52.590;7.330;2023-11-19T04:18:49;14.00;99.90
62998;DHT22;55949;52.590;7.330;2023-11-19T04:19:49;13.80;99.90
62998;DHT22;55949;52.590;7.330;2023-11-19T04:20:50;13.70;99.90
62998;DHT22;55949;52.590;7.330;2023-11-19T04:21:51;13.80;99.90
62998;DHT22;55949;52.590;7.330;2023-11-19T04:22:52;13.90;99.90
62998;DHT22;55949;52.590;7.330;2023-11-19T04:23:54;14.00;99.90
62998;DHT22;55949;52.590;7.330;2023-11-19T04:24:54;14.10;99.90
62998;DHT22;55949;52.590;7.330;2023-11-19T04:25:55;14.10;99.90
62998;DHT22;55949;52.590;7.330;2023-11-19T04:26:57;14.00;99.90
62998;DHT22;55949;52.590;7.330;2023-11-19T04:27:58;13.90;99.90
62998;DHT22;55949;52.590;7.330;2023-11-19T04:28:58;13.80;99.90
62998;DHT22;55949;52.590;7.330;2023-11-19T04:29:59;13.70;99.90
62998;DHT22;55949;52.590;7.330;2023-11-19T04:31:02;13.70;99.90
62998;DHT22;55949;52.590;7.330;2023-11-19T04:32:04;13.70;99.90
62998;DHT22;55949;52.590;7.330;2023-11-19T04:33:05;13.70;99.90
62998;DHT22;55949;52.590;7.330;2023-11-19T04:34:06;13.70;99.90
62998;DHT22;55949;52.590;7.330;2023-11-19T04:35:07;13.60;99.90
62998;DHT22;55949;52.590;7.330;2023-11-19T04:36:09;13.70;99.90
62998;DHT22;55949;52.590;7.330;2023-11-19T04:37:09;13.60;99.90
62998;DHT22;55949;52.590;7.330;2023-11-19T04:38:10;13.50;99.90
62998;DHT22;55949;52.590;7.330;2023-11-19T04:39:11;13.50;99.90
62998;DHT22;55949;52.590;7.330;2023-11-19T04:40:12;13.50;99.90
62998;DHT22;55949;52.590;7.330;2023-11-19T04:41:13;13.50;99.90
62998;DHT22;55949;52.590;7.330;2023-11-19T04:42:14;13.60;99.90
62998;DHT22;55949;52.590;7.330;2023-11-19T04:43:17;13.60;99.90
62998;DHT22;55949;52.590;7.330;2023-11-19T04:44:18;13.60;99.90
62998;DHT22;55949;52.590;7.330;2023-11-19T04:45:18;13.50;99.90
62998;DHT22;55949;52.590;7.330;2023-11-19T04:46:19;13.60;99.90
62998;DHT22;55949;52.590;7.330;2023-11-19T04:47:20;13.70;99.90
62998;DHT22;55949;52.590;7.330;2023-11-19T04:48:20;13.70;99.90
62998;DHT22;55949;52.590;7.330;2023-11-19T04:49:21;13.70;99.90
62998;DHT22;55949;52.590;7.330;2023-11-19T04:50:22;13.90;99.90
62998;DHT22;55949;52.590;7.330;2023-11-19T04:51:22;13.80;99.90
62998;DHT22;55949;52.590;7.330;2023-11-19T04:52:23;13.90;99.90
62998;DHT22;55949;52.590;7.330;2023-11-19T04:53:24;13.80;99.90
62998;DHT22;55949;52.590;7.330;2023-11-19T04:54:24;13.90;99.90
62998;DHT22;55949;52.590;7.330;2023-11-19T04:55:25;13.80;99.90
62998;DHT22;55949;52.590;7.330;2023-11-19T04:56:25;13.90;99.90
62998;DHT22;55949;52.590;7.330;2023-11-19T04:57:26;13.80;99.90
62998;DHT22;55949;52.590;7.330;2023-11-19T04:58:29;13.70;99.90
62998;DHT22;55949;52.590;7.330;2023-11-19T04:59:30;13.60;99.90
62998;DHT22;55949;52.590;7.330;2023-11-19T05:00:30;13.50;99.90
62998;DHT22;55949;52.590;7.330;2023-11-19T05:01:32;13.50;99.90
62998;DHT22;55949;52.590;7.330;2023-11-19T05:02:34;13.50;99.90
62998;DHT22;55949;52.590;7.330;2023-11-19T05:03:34;13.70;99.90
62998;DHT22;55949;52.590;7.330;2023-11-19T05:04:36;13.80;99.90
62998;DHT22;55949;52.590;7.330;2023-11-19T05:05:38;14.00;99.90
62998;DHT22;55949;52.590;7.330;2023-11-19T05:06:38;14.00;99.90
62998;DHT22;55949;52.590;7.330;2023-11-19T05:07:39;13.90;99.90
62998;DHT22;55949;52.590;7.330;2023-11-19T05:08:40;14.00;99.90
62998;DHT22;55949;52.590;7.330;2023-11-19T05:09:40;13.90;99.90
62998;DHT22;55949;52.590;7.330;2023-11-19T05:10:41;14.00;99.90
62998;DHT22;55949;52.590;7.330;2023-11-19T05:11:42;13.90;99.90
62998;DHT22;55949;52.590;7.330;2023-11-19T05:12:43;14.00;99.90
62998;DHT22;55949;52.590;7.330;2023-11-19T05:13:44;13.90;99.90
62998;DHT22;55949;52.590;7.330;2023-11-19T05:14:46;13.80;99.90
62998;DHT22;55949;52.590;7.330;2023-11-19T05:15:50;13.60;99.90
62998;DHT22;55949;52.590;7.330;2023-11-19T05:16:50;13.50;99.90
62998;DHT22;55949;52.590;7.330;2023-11-19T05:17:51;13.50;99.90
62998;DHT22;55949;52.590;7.330;2023-11-19T05:18:52;13.70;99.90
62998;DHT22;55949;52.590;7.330;2023-11-19T05:19:52;13.70;99.90
62998;DHT22;55949;52.590;7.330;2023-11-19T05:20:54;13.70;99.90
62998;DHT22;55949;52.590;7.330;2023-11-19T05:21:54;13.80;99.90
62998;DHT22;55949;52.590;7.330;2023-11-19T05:22:55;13.80;99.90
62998;DHT22;55949;52.590;7.330;2023-11-19T05:23:56;13.70;99.90
62998;DHT22;55949;52.590;7.330;2023-11-19T05:24:57;13.90;99.90
62998;DHT22;55949;52.590;7.330;2023-11-19T05:25:57;13.90;99.90
62998;DHT22;55949;52.590;7.330;2023-11-19T05:26:59;13.90;99.90
62998;DHT22;55949;52.590;7.330;2023-11-19T05:27:59;13.90;99.90
62998;DHT22;55949;52.590;7.330;2023-11-19T05:29:00;13.60;99.90
62998;DHT22;55949;52.590;7.330;2023-11-19T05:30:04;13.50;99.90
62998;DHT22;55949;52.590;7.330;2023-11-19T05:31:07;13.50;99.90
62998;DHT22;55949;52.590;7.330;2023-11-19T05:32:08;13.30;99.90
62998;DHT22;55949;52.590;7.330;2023-11-19T05:33:09;13.50;99.90
62998;DHT22;55949;52.590;7.330;2023-11-19T05:34:09;13.40;99.90
62998;DHT22;55949;52.590;7.330;2023-11-19T05:35:11;13.50;99.90
62998;DHT22;55949;52.590;7.330;2023-11-19T05:36:12;13.40;99.90
62998;DHT22;55949;52.590;7.330;2023-11-19T05:37:13;13.40;99.90
62998;DHT22;55949;52.590;7.330;2023-11-19T05:38:13;13.50;99.90
62998;DHT22;55949;52.590;7.330;2023-11-19T05:39:16;13.40;99.90
62998;DHT22;55949;52.590;7.330;2023-11-19T05:40:17;13.40;99.90
62998;DHT22;55949;52.590;7.330;2023-11-19T05:41:19;13.60;99.90
62998;DHT22;55949;52.590;7.330;2023-11-19T05:42:19;13.60;99.90
62998;DHT22;55949;52.590;7.330;2023-11-19T05:43:20;13.50;99.90
62998;DHT22;55949;52.590;7.330;2023-11-19T05:44:21;13.40;99.90
62998;DHT22;55949;52.590;7.330;2023-11-19T05:45:22;13.50;99.90
62998;DHT22;55949;52.590;7.330;2023-11-19T05:46:22;13.50;99.90
62998;DHT22;55949;52.590;7.330;2023-11-19T05:47:23;13.40;99.90
62998;DHT22;55949;52.590;7.330;2023-11-19T05:48:26;13.20;99.90
62998;DHT22;55949;52.590;7.330;2023-11-19T05:49:27;13.10;99.90
62998;DHT22;55949;52.590;7.330;2023-11-19T05:50:27;12.90;99.90
62998;DHT22;55949;52.590;7.330;2023-11-19T05:51:28;13.00;99.90
62998;DHT22;55949;52.590;7.330;2023-11-19T05:52:29;13.00;99.90
62998;DHT22;55949;52.590;7.330;2023-11-19T05:53:33;13.10;99.90
62998;DHT22;55949;52.590;7.330;2023-11-19T05:54:34;13.00;99.90
62998;DHT22;55949;52.590;7.330;2023-11-19T05:55:40;12.90;99.90
62998;DHT22;55949;52.590;7.330;2023-11-19T05:56:49;13.10;99.90
62998;DHT22;55949;52.590;7.330;2023-11-19T05:57:50;13.10;99.90
62998;DHT22;55949;52.590;7.330;2023-11-19T05:58:52;13.00;99.90
62998;DHT22;55949;52.590;7.330;2023-11-19T05:59:52;13.10;99.90
62998;DHT22;55949;52.590;7.330;2023-11-19T06:00:55;13.20;99.90
62998;DHT22;55949;52.590;7.330;2023-11-19T06:01:57;13.10;99.90
62998;DHT22;55949;52.590;7.330;2023-11-19T06:02:58;13.20;99.90
62998;DHT22;55949;52.590;7.330;2023-11-19T06:03:59;13.20;99.90
62998;DHT22;55949;52.590;7.330;2023-11-19T06:05:01;13.20;99.90
62998;DHT22;55949;52.590;7.330;2023-11-19T06:06:02;13.10;99.90
62998;DHT22;55949;52.590;7.330;2023-11-19T06:07:03;13.20;99.90
62998;DHT22;55949;52.590;7.330;2023-11-19T06:08:03;13.20;99.90
62998;DHT22;55949;52.590;7.330;2023-11-19T06:09:04;13.10;99.90
62998;DHT22;55949;52.590;7.330;2023-11-19T06:10:07;13.10;99.90
62998;DHT22;55949;52.590;7.330;2023-11-19T06:11:10;13.10;99.90
62998;DHT22;55949;52.590;7.330;2023-11-19T06:12:18;13.10;99.90
62998;DHT22;55949;52.590;7.330;2023-11-19T06:13:19;13.20;99.90
62998;DHT22;55949;52.590;7.330;2023-11-19T06:14:20;13.20;99.90
62998;DHT22;55949;52.590;7.330;2023-11-19T06:15:20;13.10;99.90
62998;DHT22;55949;52.590;7.330;2023-11-19T06:16:21;13.10;99.90
62998;DHT22;55949;52.590;7.330;2023-11-19T06:17:22;13.10;99.90
62998;DHT22;55949;52.590;7.330;2023-11-19T06:18:22;13.10;99.90
62998;DHT22;55949;52.590;7.330;2023-11-19T06:19:23;13.10;99.90
62998;DHT22;55949;52.590;7.330;2023-11-19T06:20:25;13.00;99.90
62998;DHT22;55949;52.590;7.330;2023-11-19T06:21:28;13.00;99.90
62998;DHT22;55949;52.590;7.330;2023-11-19T06:22:28;13.00;99.90
62998;DHT22;55949;52.590;7.330;2023-11-19T06:23:29;13.00;99.90
62998;DHT22;55949;52.590;7.330;2023-11-19T06:24:30;13.10;99.90
62998;DHT22;55949;52.590;7.330;2023-11-19T06:25:30;12.90;99.90
62998;DHT22;55949;52.590;7.330;2023-11-19T06:26:31;12.90;99.90
62998;DHT22;55949;52.590;7.330;2023-11-19T06:27:32;12.90;99.90